sensor_id;sensor_type;location;lat;lon;timestamp;P1;durP1;ratioP1;P2;durP2;ratioP2
75851;SDS011;64500;52.632;20.656;2023-01-26T00:00:17;27.60;;;15.80;;
75851;SDS011;64500;52.632;20.656;2023-01-26T00:03:25;25.00;;;14.40;;
75851;SDS011;64500;52.632;20.656;2023-01-26T00:06:33;24.90;;;14.90;;
75851;SDS011;64500;52.632;20.656;2023-01-26T00:09:25;24.00;;;14.80;;
75851;SDS011;64500;52.632;20.656;2023-01-26T00:12:13;25.20;;;15.10;;
75851;SDS011;64500;52.632;20.656;2023-01-26T00:15:04;23.70;;;14.80;;
75851;SDS011;64500;52.632;20.656;2023-01-26T00:17:46;24.00;;;14.90;;
75851;SDS011;64500;52.632;20.656;2023-01-26T00:20:50;23.10;;;13.50;;
75851;SDS011;64500;52.632;20.656;2023-01-26T00:23:49;23.50;;;15.10;;
75851;SDS011;64500;52.632;20.656;2023-01-26T00:26:57;24.40;;;14.50;;
75851;SDS011;64500;52.632;20.656;2023-01-26T00:29:53;23.30;;;14.50;;
75851;SDS011;64500;52.632;20.656;2023-01-26T00:33:15;21.90;;;14.00;;
75851;SDS011;64500;52.632;20.656;2023-01-26T00:42:22;24.10;;;15.00;;
75851;SDS011;64500;52.632;20.656;2023-01-26T00:52:01;23.20;;;14.50;;
75851;SDS011;64500;52.632;20.656;2023-01-26T00:54:58;23.80;;;14.10;;
75851;SDS011;64500;52.632;20.656;2023-01-26T00:58:08;25.10;;;14.90;;
75851;SDS011;64500;52.632;20.656;2023-01-26T01:00:48;23.60;;;14.40;;
75851;SDS011;64500;52.632;20.656;2023-01-26T01:03:44;24.50;;;14.70;;
75851;SDS011;64500;52.632;20.656;2023-01-26T01:09:46;23.40;;;14.10;;
75851;SDS011;64500;52.632;20.656;2023-01-26T01:12:43;22.20;;;13.90;;
75851;SDS011;64500;52.632;20.656;2023-01-26T01:15:31;23.70;;;14.70;;
75851;SDS011;64500;52.632;20.656;2023-01-26T01:18:35;23.60;;;14.30;;
75851;SDS011;64500;52.632;20.656;2023-01-26T01:21:39;22.80;;;14.40;;
75851;SDS011;64500;52.632;20.656;2023-01-26T01:28:10;24.40;;;14.60;;
75851;SDS011;64500;52.632;20.656;2023-01-26T01:31:09;23.90;;;14.30;;
75851;SDS011;64500;52.632;20.656;2023-01-26T01:37:49;23.10;;;13.80;;
75851;SDS011;64500;52.632;20.656;2023-01-26T01:44:09;22.60;;;14.20;;
75851;SDS011;64500;52.632;20.656;2023-01-26T01:47:13;23.70;;;14.60;;
75851;SDS011;64500;52.632;20.656;2023-01-26T01:53:29;23.30;;;13.90;;
75851;SDS011;64500;52.632;20.656;2023-01-26T01:56:47;23.70;;;13.20;;
75851;SDS011;64500;52.632;20.656;2023-01-26T02:00:08;23.80;;;13.30;;
75851;SDS011;64500;52.632;20.656;2023-01-26T02:07:13;21.50;;;13.10;;
75851;SDS011;64500;52.632;20.656;2023-01-26T02:09:32;21.80;;;13.30;;
75851;SDS011;64500;52.632;20.656;2023-01-26T02:15:48;22.90;;;13.70;;
75851;SDS011;64500;52.632;20.656;2023-01-26T02:18:38;23.30;;;14.20;;
75851;SDS011;64500;52.632;20.656;2023-01-26T02:21:32;25.70;;;14.10;;
75851;SDS011;64500;52.632;20.656;2023-01-26T02:24:21;23.90;;;13.80;;
75851;SDS011;64500;52.632;20.656;2023-01-26T02:27:12;23.80;;;13.90;;
75851;SDS011;64500;52.632;20.656;2023-01-26T02:30:07;23.30;;;14.20;;
75851;SDS011;64500;52.632;20.656;2023-01-26T02:32:52;23.00;;;13.30;;
75851;SDS011;64500;52.632;20.656;2023-01-26T02:35:46;25.00;;;14.50;;
75851;SDS011;64500;52.632;20.656;2023-01-26T02:38:42;24.00;;;14.00;;
75851;SDS011;64500;52.632;20.656;2023-01-26T02:41:21;23.80;;;13.90;;
75851;SDS011;64500;52.632;20.656;2023-01-26T02:44:20;22.10;;;13.90;;
75851;SDS011;64500;52.632;20.656;2023-01-26T02:47:16;25.60;;;14.50;;
75851;SDS011;64500;52.632;20.656;2023-01-26T02:56:15;24.60;;;14.20;;
75851;SDS011;64500;52.632;20.656;2023-01-26T02:59:13;24.30;;;14.50;;
75851;SDS011;64500;52.632;20.656;2023-01-26T03:01:57;24.60;;;13.50;;
75851;SDS011;64500;52.632;20.656;2023-01-26T03:04:37;23.50;;;14.20;;
75851;SDS011;64500;52.632;20.656;2023-01-26T03:07:14;23.40;;;13.90;;
75851;SDS011;64500;52.632;20.656;2023-01-26T03:09:53;23.70;;;14.10;;
75851;SDS011;64500;52.632;20.656;2023-01-26T03:12:52;22.40;;;13.00;;
75851;SDS011;64500;52.632;20.656;2023-01-26T03:15:41;22.80;;;13.20;;
75851;SDS011;64500;52.632;20.656;2023-01-26T03:18:53;23.30;;;14.10;;
75851;SDS011;64500;52.632;20.656;2023-01-26T03:21:57;23.60;;;13.90;;
75851;SDS011;64500;52.632;20.656;2023-01-26T03:24:58;24.10;;;13.90;;
75851;SDS011;64500;52.632;20.656;2023-01-26T03:31:12;24.10;;;13.60;;
75851;SDS011;64500;52.632;20.656;2023-01-26T03:33:56;22.80;;;14.00;;
75851;SDS011;64500;52.632;20.656;2023-01-26T03:39:48;25.10;;;13.60;;
75851;SDS011;64500;52.632;20.656;2023-01-26T03:43:05;23.00;;;13.80;;
75851;SDS011;64500;52.632;20.656;2023-01-26T03:46:09;23.00;;;14.10;;
75851;SDS011;64500;52.632;20.656;2023-01-26T03:49:21;22.90;;;14.40;;
75851;SDS011;64500;52.632;20.656;2023-01-26T03:55:46;23.00;;;14.00;;
75851;SDS011;64500;52.632;20.656;2023-01-26T03:58:57;22.80;;;13.70;;
75851;SDS011;64500;52.632;20.656;2023-01-26T04:01:48;23.50;;;14.20;;
75851;SDS011;64500;52.632;20.656;2023-01-26T04:04:41;23.50;;;13.60;;
75851;SDS011;64500;52.632;20.656;2023-01-26T04:07:43;21.60;;;13.20;;
75851;SDS011;64500;52.632;20.656;2023-01-26T04:10:56;24.00;;;13.10;;
75851;SDS011;64500;52.632;20.656;2023-01-26T04:16:46;22.70;;;13.50;;
75851;SDS011;64500;52.632;20.656;2023-01-26T04:19:37;21.90;;;12.60;;
75851;SDS011;64500;52.632;20.656;2023-01-26T04:22:39;23.30;;;13.30;;
75851;SDS011;64500;52.632;20.656;2023-01-26T04:25:30;21.40;;;13.10;;
75851;SDS011;64500;52.632;20.656;2023-01-26T04:28:18;22.20;;;12.80;;
75851;SDS011;64500;52.632;20.656;2023-01-26T04:31:00;23.20;;;13.70;;
75851;SDS011;64500;52.632;20.656;2023-01-26T04:33:55;22.30;;;12.90;;
75851;SDS011;64500;52.632;20.656;2023-01-26T04:36:29;23.50;;;13.90;;
75851;SDS011;64500;52.632;20.656;2023-01-26T04:42:29;23.20;;;13.70;;
75851;SDS011;64500;52.632;20.656;2023-01-26T04:45:24;24.10;;;14.00;;
75851;SDS011;64500;52.632;20.656;2023-01-26T04:48:23;22.00;;;13.40;;
75851;SDS011;64500;52.632;20.656;2023-01-26T05:00:45;21.40;;;13.70;;
75851;SDS011;64500;52.632;20.656;2023-01-26T05:03:52;21.60;;;13.20;;
75851;SDS011;64500;52.632;20.656;2023-01-26T05:07:15;25.90;;;14.50;;
75851;SDS011;64500;52.632;20.656;2023-01-26T05:10:05;22.50;;;13.50;;
75851;SDS011;64500;52.632;20.656;2023-01-26T05:13:27;25.20;;;14.20;;
75851;SDS011;64500;52.632;20.656;2023-01-26T05:23:05;22.60;;;13.60;;
75851;SDS011;64500;52.632;20.656;2023-01-26T05:26:01;23.00;;;13.20;;
75851;SDS011;64500;52.632;20.656;2023-01-26T05:29:01;24.70;;;14.80;;
75851;SDS011;64500;52.632;20.656;2023-01-26T05:38:22;24.30;;;14.70;;
75851;SDS011;64500;52.632;20.656;2023-01-26T05:41:05;23.90;;;15.10;;
75851;SDS011;64500;52.632;20.656;2023-01-26T05:50:03;23.30;;;13.60;;
75851;SDS011;64500;52.632;20.656;2023-01-26T05:52:41;24.40;;;14.30;;
75851;SDS011;64500;52.632;20.656;2023-01-26T05:55:31;24.70;;;14.00;;
75851;SDS011;64500;52.632;20.656;2023-01-26T05:58:21;23.80;;;14.30;;
75851;SDS011;64500;52.632;20.656;2023-01-26T06:01:22;24.40;;;14.70;;
75851;SDS011;64500;52.632;20.656;2023-01-26T06:04:12;27.10;;;15.00;;
75851;SDS011;64500;52.632;20.656;2023-01-26T06:07:08;24.80;;;14.70;;
75851;SDS011;64500;52.632;20.656;2023-01-26T06:10:04;24.00;;;15.00;;
75851;SDS011;64500;52.632;20.656;2023-01-26T06:19:38;24.80;;;14.20;;
75851;SDS011;64500;52.632;20.656;2023-01-26T06:22:41;25.50;;;14.90;;
75851;SDS011;64500;52.632;20.656;2023-01-26T06:25:46;24.70;;;14.40;;
75851;SDS011;64500;52.632;20.656;2023-01-26T06:38:43;25.20;;;15.20;;
75851;SDS011;64500;52.632;20.656;2023-01-26T06:41:56;25.00;;;15.10;;
75851;SDS011;64500;52.632;20.656;2023-01-26T06:45:14;23.10;;;13.60;;
75851;SDS011;64500;52.632;20.656;2023-01-26T06:48:10;26.60;;;16.20;;
75851;SDS011;64500;52.632;20.656;2023-01-26T06:57:04;24.30;;;14.40;;
75851;SDS011;64500;52.632;20.656;2023-01-26T06:59:57;25.90;;;15.30;;
75851;SDS011;64500;52.632;20.656;2023-01-26T07:02:38;25.20;;;15.50;;
75851;SDS011;64500;52.632;20.656;2023-01-26T07:05:21;25.00;;;15.90;;
75851;SDS011;64500;52.632;20.656;2023-01-26T07:10:55;26.40;;;14.80;;
75851;SDS011;64500;52.632;20.656;2023-01-26T07:13:48;31.80;;;16.80;;
75851;SDS011;64500;52.632;20.656;2023-01-26T07:16:53;42.20;;;16.10;;
75851;SDS011;64500;52.632;20.656;2023-01-26T07:19:31;37.60;;;16.50;;
75851;SDS011;64500;52.632;20.656;2023-01-26T07:25:25;388.40;;;74.80;;
75851;SDS011;64500;52.632;20.656;2023-01-26T07:31:35;394.00;;;70.10;;
75851;SDS011;64500;52.632;20.656;2023-01-26T07:34:13;598.40;;;81.10;;
75851;SDS011;64500;52.632;20.656;2023-01-26T07:37:14;641.90;;;82.20;;
75851;SDS011;64500;52.632;20.656;2023-01-26T07:40:05;558.20;;;74.70;;
75851;SDS011;64500;52.632;20.656;2023-01-26T07:43:02;536.60;;;68.90;;
75851;SDS011;64500;52.632;20.656;2023-01-26T07:46:05;519.30;;;66.30;;
75851;SDS011;64500;52.632;20.656;2023-01-26T07:48:48;455.40;;;63.00;;
75851;SDS011;64500;52.632;20.656;2023-01-26T07:51:20;452.80;;;63.30;;
75851;SDS011;64500;52.632;20.656;2023-01-26T07:54:09;450.70;;;64.10;;
75851;SDS011;64500;52.632;20.656;2023-01-26T07:57:20;426.20;;;60.30;;
75851;SDS011;64500;52.632;20.656;2023-01-26T08:00:13;382.40;;;52.00;;
75851;SDS011;64500;52.632;20.656;2023-01-26T08:03:16;393.20;;;55.90;;
75851;SDS011;64500;52.632;20.656;2023-01-26T08:06:26;349.20;;;52.10;;
75851;SDS011;64500;52.632;20.656;2023-01-26T08:09:25;352.50;;;51.60;;
75851;SDS011;64500;52.632;20.656;2023-01-26T08:15:07;385.70;;;53.40;;
75851;SDS011;64500;52.632;20.656;2023-01-26T08:17:51;331.00;;;49.50;;
75851;SDS011;64500;52.632;20.656;2023-01-26T08:26:41;356.10;;;51.30;;
75851;SDS011;64500;52.632;20.656;2023-01-26T08:29:42;361.10;;;49.30;;
75851;SDS011;64500;52.632;20.656;2023-01-26T08:35:34;341.40;;;47.70;;
75851;SDS011;64500;52.632;20.656;2023-01-26T08:41:18;338.00;;;46.50;;
75851;SDS011;64500;52.632;20.656;2023-01-26T08:44:05;310.10;;;45.10;;
75851;SDS011;64500;52.632;20.656;2023-01-26T08:46:57;316.90;;;44.30;;
75851;SDS011;64500;52.632;20.656;2023-01-26T08:49:39;315.10;;;48.30;;
75851;SDS011;64500;52.632;20.656;2023-01-26T08:52:40;264.80;;;41.80;;
75851;SDS011;64500;52.632;20.656;2023-01-26T08:55:17;274.40;;;40.70;;
75851;SDS011;64500;52.632;20.656;2023-01-26T09:01:12;206.50;;;35.50;;
75851;SDS011;64500;52.632;20.656;2023-01-26T09:04:14;226.70;;;36.00;;
75851;SDS011;64500;52.632;20.656;2023-01-26T09:06:57;259.70;;;39.70;;
75851;SDS011;64500;52.632;20.656;2023-01-26T09:19:15;293.20;;;44.50;;
75851;SDS011;64500;52.632;20.656;2023-01-26T09:22:14;286.40;;;40.90;;
75851;SDS011;64500;52.632;20.656;2023-01-26T09:25:01;328.90;;;47.10;;
75851;SDS011;64500;52.632;20.656;2023-01-26T09:31:16;279.40;;;40.10;;
75851;SDS011;64500;52.632;20.656;2023-01-26T09:34:07;261.20;;;38.00;;
75851;SDS011;64500;52.632;20.656;2023-01-26T09:40:08;291.80;;;43.10;;
75851;SDS011;64500;52.632;20.656;2023-01-26T09:49:28;311.60;;;42.30;;
75851;SDS011;64500;52.632;20.656;2023-01-26T09:59:22;206.50;;;37.60;;
75851;SDS011;64500;52.632;20.656;2023-01-26T10:04:55;202.00;;;37.90;;
75851;SDS011;64500;52.632;20.656;2023-01-26T10:08:00;167.10;;;36.70;;
75851;SDS011;64500;52.632;20.656;2023-01-26T10:10:54;181.80;;;36.40;;
75851;SDS011;64500;52.632;20.656;2023-01-26T10:14:01;169.40;;;39.60;;
75851;SDS011;64500;52.632;20.656;2023-01-26T10:17:44;166.90;;;36.20;;
75851;SDS011;64500;52.632;20.656;2023-01-26T10:23:26;144.20;;;35.10;;
75851;SDS011;64500;52.632;20.656;2023-01-26T10:26:39;174.10;;;38.10;;
75851;SDS011;64500;52.632;20.656;2023-01-26T10:29:16;188.20;;;37.20;;
75851;SDS011;64500;52.632;20.656;2023-01-26T10:31:51;175.60;;;37.10;;
75851;SDS011;64500;52.632;20.656;2023-01-26T10:34:23;180.00;;;36.30;;
75851;SDS011;64500;52.632;20.656;2023-01-26T10:43:54;267.80;;;39.50;;
75851;SDS011;64500;52.632;20.656;2023-01-26T10:46:45;235.50;;;37.50;;
75851;SDS011;64500;52.632;20.656;2023-01-26T10:49:36;262.70;;;41.10;;
75851;SDS011;64500;52.632;20.656;2023-01-26T10:55:37;247.10;;;39.00;;
75851;SDS011;64500;52.632;20.656;2023-01-26T10:58:56;239.10;;;37.90;;
75851;SDS011;64500;52.632;20.656;2023-01-26T11:01:52;237.60;;;39.80;;
75851;SDS011;64500;52.632;20.656;2023-01-26T11:04:38;255.90;;;39.90;;
75851;SDS011;64500;52.632;20.656;2023-01-26T11:13:36;154.60;;;35.80;;
75851;SDS011;64500;52.632;20.656;2023-01-26T11:16:23;172.20;;;36.60;;
75851;SDS011;64500;52.632;20.656;2023-01-26T11:19:23;175.00;;;38.30;;
75851;SDS011;64500;52.632;20.656;2023-01-26T11:22:29;181.40;;;35.40;;
75851;SDS011;64500;52.632;20.656;2023-01-26T11:25:17;196.30;;;38.70;;
75851;SDS011;64500;52.632;20.656;2023-01-26T11:32:25;207.10;;;37.10;;
75851;SDS011;64500;52.632;20.656;2023-01-26T11:46:35;211.90;;;39.20;;
75851;SDS011;64500;52.632;20.656;2023-01-26T11:49:44;235.80;;;40.70;;
75851;SDS011;64500;52.632;20.656;2023-01-26T12:05:58;336.90;;;46.10;;
75851;SDS011;64500;52.632;20.656;2023-01-26T12:15:28;313.80;;;45.80;;
75851;SDS011;64500;52.632;20.656;2023-01-26T12:18:33;291.50;;;39.60;;
75851;SDS011;64500;52.632;20.656;2023-01-26T12:21:31;295.30;;;43.90;;
75851;SDS011;64500;52.632;20.656;2023-01-26T12:24:40;313.30;;;45.30;;
75851;SDS011;64500;52.632;20.656;2023-01-26T12:27:45;307.20;;;41.30;;
75851;SDS011;64500;52.632;20.656;2023-01-26T12:44:14;234.40;;;43.10;;
75851;SDS011;64500;52.632;20.656;2023-01-26T12:50:37;206.60;;;42.50;;
75851;SDS011;64500;52.632;20.656;2023-01-26T12:53:25;251.50;;;43.50;;
75851;SDS011;64500;52.632;20.656;2023-01-26T12:56:32;245.70;;;43.00;;
75851;SDS011;64500;52.632;20.656;2023-01-26T12:59:33;283.50;;;44.10;;
75851;SDS011;64500;52.632;20.656;2023-01-26T13:02:33;307.00;;;47.60;;
75851;SDS011;64500;52.632;20.656;2023-01-26T13:12:03;274.30;;;45.10;;
75851;SDS011;64500;52.632;20.656;2023-01-26T13:15:14;271.60;;;48.00;;
75851;SDS011;64500;52.632;20.656;2023-01-26T13:18:12;351.80;;;49.50;;
75851;SDS011;64500;52.632;20.656;2023-01-26T13:21:57;330.30;;;49.30;;
75851;SDS011;64500;52.632;20.656;2023-01-26T13:45:28;403.00;;;60.40;;
75851;SDS011;64500;52.632;20.656;2023-01-26T13:48:45;375.90;;;58.10;;
75851;SDS011;64500;52.632;20.656;2023-01-26T13:51:57;376.30;;;54.70;;
75851;SDS011;64500;52.632;20.656;2023-01-26T13:54:57;409.00;;;64.60;;
75851;SDS011;64500;52.632;20.656;2023-01-26T14:02:19;377.50;;;51.20;;
75851;SDS011;64500;52.632;20.656;2023-01-26T14:05:26;390.60;;;51.90;;
75851;SDS011;64500;52.632;20.656;2023-01-26T14:08:22;481.70;;;70.50;;
75851;SDS011;64500;52.632;20.656;2023-01-26T14:11:31;375.00;;;55.10;;
75851;SDS011;64500;52.632;20.656;2023-01-26T14:14:30;420.20;;;61.60;;
75851;SDS011;64500;52.632;20.656;2023-01-26T14:17:33;430.10;;;65.30;;
75851;SDS011;64500;52.632;20.656;2023-01-26T14:20:39;406.90;;;62.00;;
75851;SDS011;64500;52.632;20.656;2023-01-26T14:23:52;375.90;;;55.40;;
75851;SDS011;64500;52.632;20.656;2023-01-26T14:33:26;374.70;;;56.30;;
75851;SDS011;64500;52.632;20.656;2023-01-26T14:36:33;411.00;;;62.50;;
75851;SDS011;64500;52.632;20.656;2023-01-26T14:39:33;404.70;;;57.90;;
75851;SDS011;64500;52.632;20.656;2023-01-26T14:42:30;387.70;;;57.70;;
75851;SDS011;64500;52.632;20.656;2023-01-26T14:45:29;365.20;;;55.20;;
75851;SDS011;64500;52.632;20.656;2023-01-26T14:47:59;360.40;;;54.40;;
75851;SDS011;64500;52.632;20.656;2023-01-26T14:59:43;278.80;;;42.50;;
75851;SDS011;64500;52.632;20.656;2023-01-26T15:02:47;299.70;;;45.70;;
75851;SDS011;64500;52.632;20.656;2023-01-26T15:05:48;270.90;;;41.50;;
75851;SDS011;64500;52.632;20.656;2023-01-26T15:12:59;265.80;;;42.30;;
75851;SDS011;64500;52.632;20.656;2023-01-26T15:16:10;253.60;;;40.80;;
75851;SDS011;64500;52.632;20.656;2023-01-26T15:19:21;229.80;;;41.70;;
75851;SDS011;64500;52.632;20.656;2023-01-26T15:22:15;223.80;;;38.30;;
75851;SDS011;64500;52.632;20.656;2023-01-26T15:28:36;227.50;;;41.30;;
75851;SDS011;64500;52.632;20.656;2023-01-26T15:31:51;231.00;;;41.10;;
75851;SDS011;64500;52.632;20.656;2023-01-26T15:41:36;181.00;;;36.60;;
75851;SDS011;64500;52.632;20.656;2023-01-26T15:44:57;206.40;;;37.30;;
75851;SDS011;64500;52.632;20.656;2023-01-26T15:47:56;193.80;;;36.30;;
75851;SDS011;64500;52.632;20.656;2023-01-26T16:03:33;162.40;;;32.20;;
75851;SDS011;64500;52.632;20.656;2023-01-26T16:06:45;175.40;;;33.90;;
75851;SDS011;64500;52.632;20.656;2023-01-26T16:09:57;165.50;;;33.70;;
75851;SDS011;64500;52.632;20.656;2023-01-26T16:16:30;155.50;;;33.80;;
75851;SDS011;64500;52.632;20.656;2023-01-26T16:19:31;136.00;;;32.90;;
75851;SDS011;64500;52.632;20.656;2023-01-26T16:22:35;143.60;;;32.80;;
75851;SDS011;64500;52.632;20.656;2023-01-26T16:25:40;123.50;;;29.80;;
75851;SDS011;64500;52.632;20.656;2023-01-26T16:28:45;139.10;;;32.90;;
75851;SDS011;64500;52.632;20.656;2023-01-26T16:35:50;117.90;;;28.10;;
75851;SDS011;64500;52.632;20.656;2023-01-26T16:42:19;107.60;;;28.20;;
75851;SDS011;64500;52.632;20.656;2023-01-26T16:51:50;95.50;;;28.90;;
75851;SDS011;64500;52.632;20.656;2023-01-26T17:01:00;97.00;;;27.90;;
75851;SDS011;64500;52.632;20.656;2023-01-26T17:04:32;89.90;;;28.30;;
75851;SDS011;64500;52.632;20.656;2023-01-26T17:07:24;95.70;;;28.60;;
75851;SDS011;64500;52.632;20.656;2023-01-26T17:10:48;95.00;;;28.50;;
75851;SDS011;64500;52.632;20.656;2023-01-26T17:13:50;83.70;;;27.60;;
75851;SDS011;64500;52.632;20.656;2023-01-26T17:23:36;89.30;;;27.90;;
75851;SDS011;64500;52.632;20.656;2023-01-26T17:26:32;80.50;;;23.70;;
75851;SDS011;64500;52.632;20.656;2023-01-26T17:32:40;80.00;;;24.10;;
75851;SDS011;64500;52.632;20.656;2023-01-26T17:38:43;85.90;;;25.00;;
75851;SDS011;64500;52.632;20.656;2023-01-26T17:41:45;69.90;;;23.80;;
75851;SDS011;64500;52.632;20.656;2023-01-26T17:48:12;65.80;;;22.90;;
75851;SDS011;64500;52.632;20.656;2023-01-26T17:57:34;62.60;;;22.90;;
75851;SDS011;64500;52.632;20.656;2023-01-26T18:07:28;62.60;;;22.60;;
75851;SDS011;64500;52.632;20.656;2023-01-26T18:13:07;63.40;;;23.30;;
75851;SDS011;64500;52.632;20.656;2023-01-26T18:15:54;63.70;;;22.30;;
75851;SDS011;64500;52.632;20.656;2023-01-26T18:31:49;53.10;;;22.50;;
75851;SDS011;64500;52.632;20.656;2023-01-26T18:44:32;55.10;;;22.10;;
75851;SDS011;64500;52.632;20.656;2023-01-26T18:51:06;55.70;;;20.70;;
75851;SDS011;64500;52.632;20.656;2023-01-26T18:54:32;43.80;;;20.30;;
75851;SDS011;64500;52.632;20.656;2023-01-26T18:57:20;46.10;;;21.70;;
75851;SDS011;64500;52.632;20.656;2023-01-26T19:03:21;50.60;;;20.40;;
75851;SDS011;64500;52.632;20.656;2023-01-26T19:06:09;57.70;;;22.00;;
75851;SDS011;64500;52.632;20.656;2023-01-26T19:09:09;45.40;;;21.00;;
75851;SDS011;64500;52.632;20.656;2023-01-26T19:12:01;54.50;;;21.90;;
75851;SDS011;64500;52.632;20.656;2023-01-26T19:14:40;46.50;;;19.30;;
75851;SDS011;64500;52.632;20.656;2023-01-26T19:17:42;41.50;;;18.70;;
75851;SDS011;64500;52.632;20.656;2023-01-26T19:20:38;44.00;;;18.20;;
75851;SDS011;64500;52.632;20.656;2023-01-26T19:23:22;48.10;;;20.60;;
75851;SDS011;64500;52.632;20.656;2023-01-26T19:26:12;42.20;;;19.00;;
75851;SDS011;64500;52.632;20.656;2023-01-26T19:29:10;44.60;;;19.80;;
75851;SDS011;64500;52.632;20.656;2023-01-26T19:32:10;44.00;;;18.60;;
75851;SDS011;64500;52.632;20.656;2023-01-26T19:41:19;38.10;;;19.80;;
75851;SDS011;64500;52.632;20.656;2023-01-26T19:44:21;39.60;;;18.80;;
75851;SDS011;64500;52.632;20.656;2023-01-26T19:47:22;42.90;;;19.80;;
75851;SDS011;64500;52.632;20.656;2023-01-26T19:53:52;44.80;;;17.70;;
75851;SDS011;64500;52.632;20.656;2023-01-26T20:00:14;43.10;;;18.90;;
75851;SDS011;64500;52.632;20.656;2023-01-26T20:03:12;40.80;;;18.70;;
75851;SDS011;64500;52.632;20.656;2023-01-26T20:12:48;34.30;;;17.20;;
75851;SDS011;64500;52.632;20.656;2023-01-26T20:15:53;43.70;;;19.20;;
75851;SDS011;64500;52.632;20.656;2023-01-26T20:19:16;37.00;;;16.80;;
75851;SDS011;64500;52.632;20.656;2023-01-26T20:22:17;35.30;;;17.00;;
75851;SDS011;64500;52.632;20.656;2023-01-26T20:25:08;36.60;;;16.40;;
75851;SDS011;64500;52.632;20.656;2023-01-26T20:28:38;37.50;;;16.80;;
75851;SDS011;64500;52.632;20.656;2023-01-26T20:38:45;31.90;;;16.30;;
75851;SDS011;64500;52.632;20.656;2023-01-26T20:41:42;32.80;;;16.40;;
75851;SDS011;64500;52.632;20.656;2023-01-26T21:00:55;36.20;;;16.50;;
75851;SDS011;64500;52.632;20.656;2023-01-26T21:04:14;32.90;;;16.40;;
75851;SDS011;64500;52.632;20.656;2023-01-26T21:10:38;26.50;;;13.90;;
75851;SDS011;64500;52.632;20.656;2023-01-26T21:13:35;31.30;;;18.20;;
75851;SDS011;64500;52.632;20.656;2023-01-26T21:16:33;34.70;;;16.80;;
75851;SDS011;64500;52.632;20.656;2023-01-26T21:19:47;35.80;;;15.70;;
75851;SDS011;64500;52.632;20.656;2023-01-26T21:22:54;31.80;;;15.80;;
75851;SDS011;64500;52.632;20.656;2023-01-26T21:25:55;29.80;;;17.50;;
75851;SDS011;64500;52.632;20.656;2023-01-26T21:29:15;50.90;;;18.40;;
75851;SDS011;64500;52.632;20.656;2023-01-26T21:32:16;32.70;;;14.90;;
75851;SDS011;64500;52.632;20.656;2023-01-26T21:38:26;30.30;;;15.90;;
75851;SDS011;64500;52.632;20.656;2023-01-26T21:41:34;35.40;;;16.90;;
75851;SDS011;64500;52.632;20.656;2023-01-26T21:51:38;29.10;;;15.60;;
75851;SDS011;64500;52.632;20.656;2023-01-26T21:54:37;30.20;;;16.00;;
75851;SDS011;64500;52.632;20.656;2023-01-26T21:57:43;30.00;;;16.00;;
75851;SDS011;64500;52.632;20.656;2023-01-26T22:01:09;32.00;;;16.10;;
75851;SDS011;64500;52.632;20.656;2023-01-26T22:04:08;33.00;;;15.60;;
75851;SDS011;64500;52.632;20.656;2023-01-26T22:07:14;29.50;;;15.20;;
75851;SDS011;64500;52.632;20.656;2023-01-26T22:10:08;30.00;;;15.80;;
75851;SDS011;64500;52.632;20.656;2023-01-26T22:13:08;26.90;;;15.40;;
75851;SDS011;64500;52.632;20.656;2023-01-26T22:22:52;27.90;;;14.50;;
75851;SDS011;64500;52.632;20.656;2023-01-26T22:25:53;32.00;;;15.60;;
75851;SDS011;64500;52.632;20.656;2023-01-26T22:31:43;28.80;;;15.60;;
75851;SDS011;64500;52.632;20.656;2023-01-26T22:34:17;30.70;;;16.00;;
75851;SDS011;64500;52.632;20.656;2023-01-26T22:36:57;32.50;;;17.30;;
75851;SDS011;64500;52.632;20.656;2023-01-26T22:39:44;28.10;;;15.50;;
75851;SDS011;64500;52.632;20.656;2023-01-26T22:42:25;27.10;;;15.00;;
75851;SDS011;64500;52.632;20.656;2023-01-26T22:45:10;28.50;;;15.80;;
75851;SDS011;64500;52.632;20.656;2023-01-26T22:48:04;31.00;;;16.10;;
75851;SDS011;64500;52.632;20.656;2023-01-26T22:50:42;31.90;;;15.30;;
75851;SDS011;64500;52.632;20.656;2023-01-26T22:56:09;29.70;;;14.10;;
75851;SDS011;64500;52.632;20.656;2023-01-26T22:59:03;29.40;;;14.80;;
75851;SDS011;64500;52.632;20.656;2023-01-26T23:01:53;25.80;;;14.70;;
75851;SDS011;64500;52.632;20.656;2023-01-26T23:04:39;29.10;;;14.90;;
75851;SDS011;64500;52.632;20.656;2023-01-26T23:07:37;26.10;;;14.70;;
75851;SDS011;64500;52.632;20.656;2023-01-26T23:13:35;27.20;;;15.20;;
75851;SDS011;64500;52.632;20.656;2023-01-26T23:16:10;25.70;;;15.30;;
75851;SDS011;64500;52.632;20.656;2023-01-26T23:19:09;27.50;;;14.90;;
75851;SDS011;64500;52.632;20.656;2023-01-26T23:22:03;29.70;;;15.10;;
75851;SDS011;64500;52.632;20.656;2023-01-26T23:24:50;25.40;;;14.60;;
75851;SDS011;64500;52.632;20.656;2023-01-26T23:27:48;27.10;;;15.00;;
75851;SDS011;64500;52.632;20.656;2023-01-26T23:30:41;28.70;;;14.60;;
75851;SDS011;64500;52.632;20.656;2023-01-26T23:33:33;24.90;;;14.10;;
75851;SDS011;64500;52.632;20.656;2023-01-26T23:36:13;28.30;;;15.50;;
75851;SDS011;64500;52.632;20.656;2023-01-26T23:39:11;28.20;;;14.90;;
75851;SDS011;64500;52.632;20.656;2023-01-26T23:41:42;29.90;;;15.20;;
75851;SDS011;64500;52.632;20.656;2023-01-26T23:47:53;24.40;;;14.10;;
75851;SDS011;64500;52.632;20.656;2023-01-26T23:54:00;25.20;;;14.50;;
75851;SDS011;64500;52.632;20.656;2023-01-26T23:56:51;30.70;;;15.40;;
75851;SDS011;64500;52.632;20.656;2023-01-26T23:59:47;26.60;;;14.00;;
